Last 30 Days

OV-Belmont 8000'

Daily Data | America/Los_Angeles
as of 7/15/24 11:23 AM PDT
Date Daily Max Temp (°F) Time of Max Temp Daily Min Temp (°F) Time of Min Temp Daily Rain (In) Wind Spd (mph) Daily Max Wind (mph) Time of Max Wind Max Wind Dir (°) Max RH (%) Min RH (%) Wet Bulb (°F) WetB Hrs <28F (hrs) MinBV Day (V)
7/14/24 69.8 1359 56.1 2343 1.54 3.7 19.9 1500 SSW | 210 65 30 51.0 0.0 13.1
7/13/24 80.7 1221 54.4 1853 0.52 6.0 42.7 0328 SE | 133 82 21 51.8 0.0 13.0
7/12/24 83.0 1706 66.0 0108 0.05 3.7 21.2 1813 ESE | 104 35 15 50.6 0.0 13.0
7/11/24 81.2 1616 64.7 0447 0.09 6.9 21.7 1717 WSW | 251 39 12 50.6 0.0 13.0
7/10/24 81.1 1603 60.3 0506 0.00 4.7 19.1 1323 SW | 236 38 13 49.3 0.0 13.0
7/9/24 80.2 1537 63.2 2351 0.00 6.6 20.9 1129 SSW | 213 33 12 49.0 0.0 13.0
7/8/24 81.5 1151 65.7 0554 0.02 4.8 20.2 1446 WSW | 249 44 15 50.6 0.0 13.0
7/7/24 83.6 1510 65.7 0549 0.04 4.9 18.4 1641 SW | 228 39 14 51.1 0.0 13.0
7/6/24 85.6 1640 61.7 0511 1.60 4.9 21.3 1913 NW | 306 30 13 50.6 0.0 13.0
7/5/24 85.2 1631 62.4 0402 1.07 4.7 16.8 1922 NW | 320 42 11 51.4 0.0 13.0
7/4/24 80.3 1628 57.5 0547 0.01 3.7 16.7 1332 SW | 227 51 16 50.1 0.0 13.0
7/3/24 80.5 1611 55.3 0549 0.00 4.0 17.1 1504 WNW | 303 42 16 48.3 0.0 13.0
7/2/24 78.5 1608 53.3 0553 0.06 5.5 17.3 0121 NE | 35 50 16 47.4 0.0 13.0
7/1/24 71.9 1443 48.6 0530 0.26 5.3 21.1 2254 NE | 48 73 25 48.5 0.0 13.1
6/30/24 68.4 1619 49.2 0524 0.92 5.5 20.5 1647 WNW | 294 80 28 46.7 0.0 13.1
6/29/24 67.5 1546 53.3 2224 0.00 8.9 23.7 1233 SW | 229 53 31 45.7 0.0 13.1
6/28/24 67.8 1714 48.6 0457 0.08 6.3 21.4 1434 WSW | 244 50 18 44.3 0.0 13.1
6/27/24 63.0 1511 50.0 0412 0.69 11.0 32.9 1230 SW | 222 61 26 43.5 0.0 13.1
6/26/24 65.7 1201 51.1 2340 2.05 10.6 29.0 1642 SSW | 203 73 45 49.8 0.0 13.1
6/25/24 72.7 1312 57.6 0447 0.22 8.6 25.9 0735 SE | 140 74 37 52.8 0.0 13.0
6/24/24 68.3 1212 56.8 0534 0.00 9.4 30.7 1322 W | 261 64 29 49.6 0.0 13.1
6/23/24 69.9 1533 56.8 2323 0.00 10.3 30.4 1042 WSW | 256 52 30 49.1 0.0 13.0
6/22/24 75.0 1120 56.8 0522 0.01 6.6 26.4 1626 WSW | 239 52 21 49.6 0.0 13.0
6/21/24 74.8 1612 53.6 0210 0.00 4.9 17.0 1803 NNW | 341 49 17 47.1 0.0 13.0
6/20/24 68.2 1336 47.1 0415 0.01 5.0 16.8 2142 N | 351 66 19 44.7 0.0 13.1
6/19/24 64.4 1609 42.5 0400 0.00 3.4 17.3 1354 WNW | 299 53 24 40.4 0.0 13.1
6/18/24 56.8 1307 34.6 0508 0.00 4.3 17.0 1708 NW | 305 54 14 34.4 0.0 13.2
6/17/24 50.8 1552 36.6 0616 0.02 9.2 34.0 0002 S | 191 90 14 34.0 0.0 13.2
6/16/24 59.4 1247 41.8 2354 0.00 9.2 35.2 2308 S | 189 73 10 37.6 0.0 12.4
6/15/24 61.9 1620 45.8 0436 0.00 9.7 27.8 0010 WSW | 243 56 14 38.0 0.0 13.1
Max 85.6 - 66.0 - 2.05 11.0 42.7 - - 90 45 52.8 0.0 13.2
Avg - - - - - 6.4 - - - - - 46.9 - -
Min 50.8 - 34.6 - 0.00 3.4 16.7 - - 30 10 34.0 0.0 12.4